Terminal Aerodrome Forecast
Issued by NWS

Home | Current Version | Previous Version | Text Only | Print | Product List | Glossary On
Versions: 1 2 3 4 5 6 7 8 9 10 11 12 13
000
FTUS44 KOUN 171122
TAFGAG
TAF
KGAG 171122Z 1712/1812 35007KT P6SM SCT100
     FM172300 14012KT P6SM SCT150
     FM180300 15008KT P6SM BKN150 PROB30 1805/1809 3SM TSRA
      BKN050CB=

USA.gov is the U.S. government's official web portal to all federal, state and local government web resources and services.